createdAt,value
2023-08-08T00:02:16.338Z,101368.25
2023-08-08T00:04:42.932Z,101364.66
2023-08-08T00:07:09.412Z,101369.13
2023-08-08T00:09:35.954Z,101368.25
2023-08-08T00:12:02.516Z,101364.66
2023-08-08T00:14:29.019Z,101371.03
2023-08-08T00:16:55.612Z,101365.50
2023-08-08T00:19:22.130Z,101361.06
2023-08-08T00:21:48.650Z,101355.56
2023-08-08T00:24:15.152Z,101351.94
2023-08-08T00:26:41.618Z,101348.34
2023-08-08T00:29:08.106Z,101351.94
2023-08-08T00:31:34.715Z,101349.41
2023-08-08T00:34:02.602Z,101348.34
2023-08-08T00:36:29.217Z,101356.59
2023-08-08T00:38:55.760Z,101358.50
2023-08-08T00:41:22.996Z,101351.09
2023-08-08T00:43:50.660Z,101353.84
2023-08-08T00:46:23.244Z,101351.09
2023-08-08T00:48:50.200Z,101351.94
2023-08-08T00:51:18.227Z,101350.25
2023-08-08T00:53:45.771Z,101338.38
2023-08-08T00:56:15.480Z,101336.50
2023-08-08T00:58:42.940Z,101336.69
2023-08-08T01:01:10.028Z,101331.19
2023-08-08T01:03:36.680Z,101336.69
2023-08-08T01:06:10.005Z,101343.03
2023-08-08T01:09:01.887Z,101339.25
2023-08-08T01:11:31.268Z,101342.19
2023-08-08T01:14:00.218Z,101333.09
2023-08-08T01:16:27.919Z,101329.47
2023-08-08T01:18:58.139Z,101337.72
2023-08-08T01:21:28.502Z,101332.22
2023-08-08T01:24:22.980Z,101334.97
2023-08-08T01:26:50.225Z,101336.88
2023-08-08T01:29:16.752Z,101341.53
2023-08-08T01:31:43.301Z,101339.63
2023-08-08T01:34:09.861Z,101329.69
2023-08-08T01:36:43.472Z,101330.53
2023-08-08T01:39:15.448Z,101326.94
2023-08-08T01:41:44.089Z,101332.44
2023-08-08T01:44:11.950Z,101324.16
2023-08-08T01:46:39.795Z,101324.16
2023-08-08T01:49:06.448Z,101318.66
2023-08-08T01:51:32.969Z,101306.81
2023-08-08T01:53:59.536Z,101326.06
2023-08-08T01:56:26.393Z,101322.47
2023-08-08T01:58:52.853Z,101325.22
2023-08-08T02:01:19.437Z,101319.72
2023-08-08T02:03:46.265Z,101322.47
2023-08-08T02:06:12.820Z,101335.38
2023-08-08T02:08:39.318Z,101338.97
2023-08-08T02:11:05.801Z,101336.22
2023-08-08T02:13:32.849Z,101332.63
2023-08-08T02:15:59.403Z,101325.22
2023-08-08T02:18:26.731Z,101319.72
2023-08-08T02:20:53.182Z,101319.72
2023-08-08T02:23:19.798Z,101307.84
2023-08-08T02:25:46.398Z,101299.59
2023-08-08T02:28:12.993Z,101298.75
2023-08-08T02:30:39.732Z,101287.75
2023-08-08T02:33:06.333Z,101285.00
2023-08-08T02:35:34.664Z,101285.00
2023-08-08T02:38:01.235Z,101283.09
2023-08-08T02:40:28.089Z,101285.00
2023-08-08T02:42:54.814Z,101282.25
2023-08-08T02:45:21.761Z,101284.16
2023-08-08T02:47:48.384Z,101283.28
2023-08-08T02:50:14.918Z,101286.03
2023-08-08T02:52:41.681Z,101295.34
2023-08-08T02:55:08.783Z,101293.44
2023-08-08T02:57:36.622Z,101298.09
2023-08-08T03:00:05.018Z,101293.66
2023-08-08T03:02:37.160Z,101291.75
2023-08-08T03:05:04.013Z,101281.59
2023-08-08T03:07:30.485Z,101272.50
2023-08-08T03:09:57.009Z,101267.84
2023-08-08T03:12:23.506Z,101272.69
2023-08-08T03:14:52.153Z,101269.72
2023-08-08T03:17:18.762Z,101265.28
2023-08-08T03:19:45.882Z,101273.53
2023-08-08T03:22:12.494Z,101267.19
2023-08-08T03:24:39.090Z,101258.06
2023-08-08T03:27:06.181Z,101271.84
2023-08-08T03:29:32.750Z,101268.88
2023-08-08T03:31:59.755Z,101269.09
2023-08-08T03:34:29.661Z,101275.44
2023-08-08T03:36:57.261Z,101271.84
2023-08-08T03:39:24.234Z,101271.84
2023-08-08T03:41:50.961Z,101279.25
2023-08-08T03:44:18.833Z,101270.13
2023-08-08T03:46:45.475Z,101266.34
2023-08-08T03:49:13.730Z,101265.47
2023-08-08T03:51:40.232Z,101267.38
2023-08-08T03:54:06.888Z,101265.47
2023-08-08T03:56:33.592Z,101264.63
2023-08-08T03:59:00.482Z,101263.78
2023-08-08T04:01:27.106Z,101256.38
2023-08-08T04:03:53.715Z,101260.19
2023-08-08T04:06:20.231Z,101267.38
2023-08-08T04:08:46.734Z,101260.19
2023-08-08T04:11:13.345Z,101255.72
2023-08-08T04:13:39.858Z,101251.06
2023-08-08T04:16:06.455Z,101253.81
2023-08-08T04:18:33.106Z,101245.56
2023-08-08T04:20:59.620Z,101243.88
2023-08-08T04:23:26.976Z,101249.38
2023-08-08T04:25:54.152Z,101258.47
2023-08-08T04:28:20.911Z,101254.03
2023-08-08T04:30:47.513Z,101254.03
2023-08-08T04:33:14.056Z,101252.13
2023-08-08T04:35:40.532Z,101250.22
2023-08-08T04:38:07.124Z,101247.47
2023-08-08T04:40:34.123Z,101244.91
2023-08-08T04:43:01.115Z,101254.03
2023-08-08T04:45:28.397Z,101258.66
2023-08-08T04:47:54.867Z,101248.53
2023-08-08T04:50:21.402Z,101247.66
2023-08-08T04:52:47.926Z,101256.78
2023-08-08T04:55:14.439Z,101259.53
2023-08-08T04:57:40.877Z,101255.06
2023-08-08T05:00:09.642Z,101252.31
2023-08-08T05:02:37.189Z,101251.47
2023-08-08T05:05:05.118Z,101248.72
2023-08-08T05:07:31.675Z,101249.56
2023-08-08T05:09:58.154Z,101255.28
2023-08-08T05:12:26.221Z,101259.72
2023-08-08T05:14:53.015Z,101259.72
2023-08-08T05:17:19.708Z,101250.63
2023-08-08T05:19:46.292Z,101250.63
2023-08-08T05:22:12.960Z,101244.25
2023-08-08T05:24:39.450Z,101245.13
2023-08-08T05:27:06.272Z,101247.88
2023-08-08T05:29:33.026Z,101247.00
2023-08-08T05:31:59.932Z,101251.47
2023-08-08T05:34:26.696Z,101255.28
2023-08-08T05:37:10.205Z,101258.66
2023-08-08T05:39:53.717Z,101251.47
2023-08-08T05:42:20.689Z,101246.16
2023-08-08T05:44:47.210Z,101255.28
2023-08-08T05:47:13.648Z,101255.28
2023-08-08T05:49:43.496Z,101258.03
2023-08-08T05:52:10.386Z,101254.41
2023-08-08T05:54:37.305Z,101262.47
2023-08-08T05:57:04.233Z,101255.28
2023-08-08T05:59:30.730Z,101265.22
2023-08-08T06:02:00.973Z,101256.97
2023-08-08T06:04:27.752Z,101261.63
2023-08-08T06:06:54.462Z,101262.47
2023-08-08T06:09:21.142Z,101266.28
2023-08-08T06:11:47.661Z,101264.19
2023-08-08T06:14:14.162Z,101265.22
2023-08-08T06:16:40.857Z,101268.81
2023-08-08T06:19:07.403Z,101270.53
2023-08-08T06:21:33.936Z,101264.19
2023-08-08T06:24:00.438Z,101268.81
2023-08-08T06:26:27.000Z,101272.44
2023-08-08T06:28:53.701Z,101269.69
2023-08-08T06:31:20.701Z,101274.13
2023-08-08T06:33:47.207Z,101272.44
2023-08-08T06:36:13.701Z,101274.13
2023-08-08T06:38:40.450Z,101284.09
2023-08-08T06:41:07.029Z,101292.34
2023-08-08T06:43:33.542Z,101292.34
2023-08-08T06:46:00.160Z,101290.44
2023-08-08T06:48:26.771Z,101294.03
2023-08-08T06:50:53.281Z,101289.59
2023-08-08T06:53:19.835Z,101292.34
2023-08-08T06:55:46.349Z,101295.94
2023-08-08T06:58:12.902Z,101299.53
2023-08-08T07:00:39.413Z,101297.66
2023-08-08T07:03:06.471Z,101295.94
2023-08-08T07:05:33.397Z,101296.78
2023-08-08T07:07:59.971Z,101294.03
2023-08-08T07:10:26.610Z,101291.28
2023-08-08T07:12:53.184Z,101292.13
2023-08-08T07:15:20.589Z,101296.59
2023-08-08T07:17:47.110Z,101290.25
2023-08-08T07:20:16.861Z,101279.25
2023-08-08T07:22:43.378Z,101288.34
2023-08-08T07:25:09.967Z,101279.25
2023-08-08T07:27:36.518Z,101293.00
2023-08-08T07:30:04.015Z,101297.44
2023-08-08T07:32:33.021Z,101287.50
2023-08-08T07:35:02.334Z,101287.50
2023-08-08T07:37:28.825Z,101280.09
2023-08-08T07:39:56.010Z,101286.44
2023-08-08T07:42:22.492Z,101286.44
2023-08-08T07:44:49.041Z,101278.19
2023-08-08T07:47:15.519Z,101277.13
2023-08-08T07:49:42.115Z,101286.25
2023-08-08T07:52:08.887Z,101282.44
2023-08-08T07:54:35.942Z,101278.00
2023-08-08T07:57:02.433Z,101270.59
2023-08-08T07:59:28.988Z,101270.59
2023-08-08T08:01:55.493Z,101284.34
2023-08-08T08:04:22.066Z,101271.44
2023-08-08T08:06:48.616Z,101278.84
2023-08-08T08:09:15.119Z,101276.94
2023-08-08T08:11:41.647Z,101280.53
2023-08-08T08:14:08.446Z,101273.13
2023-08-08T08:16:35.763Z,101280.34
2023-08-08T08:19:02.311Z,101277.59
2023-08-08T08:21:28.861Z,101275.69
2023-08-08T08:23:55.375Z,101275.69
2023-08-08T08:26:21.857Z,101275.69
2023-08-08T08:28:48.384Z,101275.69
2023-08-08T08:31:14.958Z,101268.28
2023-08-08T08:33:41.593Z,101265.53
2023-08-08T08:36:08.056Z,101266.38
2023-08-08T08:38:34.565Z,101274.63
2023-08-08T08:41:04.046Z,101267.25
2023-08-08T08:43:32.461Z,101267.25
2023-08-08T08:46:03.501Z,101266.19
2023-08-08T08:48:30.652Z,101271.88
2023-08-08T08:50:58.650Z,101274.63
2023-08-08T08:53:25.355Z,101266.38
2023-08-08T08:55:52.479Z,101265.34
2023-08-08T08:58:19.098Z,101269.78
2023-08-08T09:00:47.578Z,101276.34
2023-08-08T09:03:14.392Z,101271.88
2023-08-08T09:05:42.728Z,101270.84
2023-08-08T09:08:10.365Z,101270.84
2023-08-08T09:10:36.920Z,101272.75
2023-08-08T09:13:03.516Z,101273.59
2023-08-08T09:15:34.535Z,101275.50
2023-08-08T09:18:02.177Z,101266.38
2023-08-08T09:20:31.786Z,101269.13
2023-08-08T09:22:58.541Z,101263.63
2023-08-08T09:25:25.572Z,101259.84
2023-08-08T09:27:54.365Z,101261.53
2023-08-08T09:30:20.925Z,101259.84
2023-08-08T09:32:47.446Z,101268.09
2023-08-08T09:35:14.665Z,101272.53
2023-08-08T09:37:41.317Z,101267.88
2023-08-08T09:40:09.252Z,101266.00
2023-08-08T09:42:36.464Z,101270.63
2023-08-08T09:45:03.329Z,101267.88
2023-08-08T09:47:32.189Z,101254.13
2023-08-08T09:50:05.717Z,101267.03
2023-08-08T09:52:34.358Z,101278.91
2023-08-08T09:55:01.193Z,101267.88
2023-08-08T09:57:27.968Z,101271.50
2023-08-08T09:59:54.603Z,101283.56
2023-08-08T10:02:21.373Z,101282.50
2023-08-08T10:04:48.893Z,101282.50
2023-08-08T10:07:16.120Z,101278.69
2023-08-08T10:09:43.185Z,101284.19
2023-08-08T10:12:10.484Z,101286.94
2023-08-08T10:14:39.136Z,101284.19
2023-08-08T10:17:09.218Z,101281.44
2023-08-08T10:19:37.149Z,101285.06
2023-08-08T10:22:08.870Z,101284.84
2023-08-08T10:24:38.996Z,101280.41
2023-08-08T10:27:05.860Z,101282.94
2023-08-08T10:29:34.425Z,101280.19
2023-08-08T10:32:04.182Z,101283.81
2023-08-08T10:34:43.896Z,101282.75
2023-08-08T10:37:13.210Z,101284.66
2023-08-08T10:39:53.086Z,101285.50
2023-08-08T10:42:21.650Z,101282.75
2023-08-08T10:44:56.617Z,101289.09
2023-08-08T10:47:31.082Z,101289.09
2023-08-08T10:50:15.265Z,101286.34
2023-08-08T10:52:53.020Z,101288.06
2023-08-08T10:55:27.956Z,101279.81
2023-08-08T10:57:56.252Z,101281.25
2023-08-08T11:00:25.978Z,101281.06
2023-08-08T11:02:52.505Z,101289.09
2023-08-08T11:05:20.142Z,101288.25
2023-08-08T11:07:46.939Z,101277.06
2023-08-08T11:10:13.737Z,101278.75
2023-08-08T11:12:40.254Z,101277.91
2023-08-08T11:15:07.463Z,101285.09
2023-08-08T11:17:34.220Z,101274.94
2023-08-08T11:20:02.587Z,101274.09
2023-08-08T11:22:29.037Z,101273.03
2023-08-08T11:24:58.632Z,101273.03
2023-08-08T11:29:58.942Z,101269.25
2023-08-08T11:32:29.199Z,101261.84
2023-08-08T11:34:56.279Z,101250.84
2023-08-08T11:37:23.324Z,101267.34
2023-08-08T11:39:50.252Z,101266.28
2023-08-08T11:42:17.019Z,101259.78
2023-08-08T11:44:43.668Z,101260.78
2023-08-08T11:47:10.201Z,101251.69
2023-08-08T11:49:45.602Z,101262.69
2023-08-08T11:52:13.493Z,101265.66
2023-08-08T11:54:40.096Z,101268.19
2023-08-08T11:57:07.239Z,101261.00
2023-08-08T11:59:33.862Z,101265.44
2023-08-08T12:02:01.436Z,101272.00
2023-08-08T12:04:28.424Z,101261.00
2023-08-08T12:07:04.579Z,101267.34
2023-08-08T12:09:34.416Z,101256.53
2023-08-08T12:12:02.510Z,101256.34
2023-08-08T12:14:29.692Z,101255.47
2023-08-08T12:16:56.886Z,101263.75
2023-08-08T12:19:25.741Z,101262.03
2023-08-08T12:21:52.915Z,101262.88
2023-08-08T12:24:19.879Z,101258.25
2023-08-08T12:26:46.570Z,101257.19
2023-08-08T12:29:16.087Z,101259.09
2023-08-08T12:31:42.760Z,101259.09
2023-08-08T12:34:09.381Z,101253.59
2023-08-08T12:36:35.927Z,101260.78
2023-08-08T12:39:02.666Z,101255.28
2023-08-08T12:41:30.747Z,101248.94
2023-08-08T12:43:57.324Z,101251.50
2023-08-08T12:46:23.867Z,101251.50
2023-08-08T12:48:50.413Z,101250.63
2023-08-08T12:51:18.115Z,101255.97
2023-08-08T12:53:45.365Z,101247.72
2023-08-08T12:56:11.949Z,101248.56
2023-08-08T12:58:38.422Z,101241.16
2023-08-08T13:01:04.965Z,101246.66
2023-08-08T13:03:35.013Z,101246.66
2023-08-08T13:06:01.781Z,101240.09
2023-08-08T13:08:28.377Z,101253.00
2023-08-08T13:10:55.128Z,101242.84
2023-08-08T13:13:24.350Z,101254.72
2023-08-08T13:15:50.834Z,101261.06
2023-08-08T13:18:17.333Z,101250.06
2023-08-08T13:20:43.949Z,101244.56
2023-08-08T13:23:11.095Z,101251.75
2023-08-08T13:25:37.565Z,101252.81
2023-08-08T13:28:04.321Z,101253.66
2023-08-08T13:30:31.278Z,101263.63
2023-08-08T13:32:58.983Z,101254.50
2023-08-08T13:35:27.080Z,101252.63
2023-08-08T13:37:55.703Z,101255.38
2023-08-08T13:40:22.461Z,101258.13
2023-08-08T13:42:49.172Z,101260.66
2023-08-08T13:45:15.974Z,101256.22
2023-08-08T13:47:42.519Z,101248.81
2023-08-08T13:50:09.498Z,101253.47
2023-08-08T13:52:36.111Z,101262.56
2023-08-08T13:55:02.688Z,101270.63
2023-08-08T13:57:29.189Z,101267.88
2023-08-08T13:59:55.729Z,101264.28
2023-08-08T14:02:22.370Z,101262.38
2023-08-08T14:04:49.319Z,101269.78
2023-08-08T14:07:15.890Z,101268.72
2023-08-08T14:09:42.361Z,101267.88
2023-08-08T14:12:09.173Z,101262.38
2023-08-08T14:14:35.684Z,101266.81
2023-08-08T14:17:02.125Z,101268.72
2023-08-08T14:19:28.612Z,101270.44
2023-08-08T14:21:55.107Z,101274.22
2023-08-08T14:24:21.625Z,101272.13
2023-08-08T14:26:48.239Z,101276.78
2023-08-08T14:29:14.737Z,101271.28
2023-08-08T14:31:50.496Z,101273.84
2023-08-08T14:34:29.893Z,101281.25
2023-08-08T14:36:56.503Z,101263.66
2023-08-08T14:39:22.989Z,101270.88
2023-08-08T14:41:49.476Z,101264.53
2023-08-08T14:44:15.955Z,101257.97
2023-08-08T14:46:42.475Z,101262.41
2023-08-08T14:49:09.906Z,101255.88
2023-08-08T14:51:36.896Z,101264.13
2023-08-08T14:54:04.266Z,101263.06
2023-08-08T14:56:30.807Z,101264.78
2023-08-08T14:58:57.612Z,101262.88
2023-08-08T15:01:24.540Z,101258.22
2023-08-08T15:03:51.111Z,101265.41
2023-08-08T15:06:17.596Z,101261.63
2023-08-08T15:08:44.134Z,101267.97
2023-08-08T15:11:12.840Z,101277.94
2023-08-08T15:13:39.360Z,101276.03
2023-08-08T15:16:05.844Z,101272.44
2023-08-08T15:18:32.364Z,101276.03
2023-08-08T15:20:59.175Z,101278.78
2023-08-08T15:23:27.111Z,101276.88
2023-08-08T15:25:56.074Z,101272.22
2023-08-08T15:28:22.643Z,101278.59
2023-08-08T15:30:49.125Z,101282.19
2023-08-08T15:33:15.634Z,101279.44
2023-08-08T15:35:42.137Z,101286.00
2023-08-08T15:38:08.620Z,101293.19
2023-08-08T15:40:35.156Z,101286.84
2023-08-08T15:43:01.617Z,101293.19
2023-08-08T15:45:28.112Z,101277.72
2023-08-08T15:47:54.696Z,101286.84
2023-08-08T15:50:21.282Z,101290.44
2023-08-08T15:52:48.626Z,101276.69
2023-08-08T15:55:15.542Z,101283.88
2023-08-08T15:57:42.238Z,101283.03
2023-08-08T16:00:11.475Z,101283.03
2023-08-08T16:02:40.648Z,101277.53
2023-08-08T16:05:07.467Z,101276.47
2023-08-08T16:07:34.000Z,101279.22
2023-08-08T16:10:00.726Z,101283.69
2023-08-08T16:12:27.196Z,101275.44
2023-08-08T16:14:54.161Z,101274.56
2023-08-08T16:17:20.621Z,101282.84
2023-08-08T16:19:47.437Z,101280.09
2023-08-08T16:22:13.994Z,101293.84
2023-08-08T16:24:40.496Z,101297.66
2023-08-08T16:27:07.083Z,101290.44
2023-08-08T16:29:33.626Z,101297.66
2023-08-08T16:32:00.093Z,101295.94
2023-08-08T16:34:26.568Z,101302.50
2023-08-08T16:36:53.277Z,101300.59
2023-08-08T16:39:19.872Z,101298.06
2023-08-08T16:41:46.738Z,101294.44
2023-08-08T16:44:13.280Z,101292.75
2023-08-08T16:46:39.756Z,101294.66
2023-08-08T16:49:08.515Z,101282.78
2023-08-08T16:51:35.667Z,101279.19
2023-08-08T16:54:02.197Z,101274.72
2023-08-08T16:56:28.897Z,101273.88
2023-08-08T16:58:55.376Z,101260.97
2023-08-08T17:01:21.953Z,101251.84
2023-08-08T17:03:48.666Z,101253.75
2023-08-08T17:06:15.288Z,101262.00
2023-08-08T17:08:41.888Z,101264.78
2023-08-08T17:11:08.483Z,101266.66
2023-08-08T17:13:35.712Z,101264.78
2023-08-08T17:16:02.242Z,101265.81
2023-08-08T17:18:28.850Z,101262.22
2023-08-08T17:20:56.742Z,101262.22
2023-08-08T17:23:23.252Z,101260.50
2023-08-08T17:25:49.785Z,101268.56
2023-08-08T17:28:16.322Z,101258.63
2023-08-08T17:30:42.875Z,101262.41
2023-08-08T17:33:09.393Z,101266.88
2023-08-08T17:35:36.148Z,101260.50
2023-08-08T17:38:03.109Z,101262.41
2023-08-08T17:40:29.660Z,101256.91
2023-08-08T17:42:56.179Z,101248.84
2023-08-08T17:45:22.920Z,101246.94
2023-08-08T17:47:49.461Z,101247.81
2023-08-08T17:50:16.033Z,101250.56
2023-08-08T17:52:42.804Z,101245.06
2023-08-08T17:55:10.774Z,101243.34
2023-08-08T17:57:37.262Z,101232.34
2023-08-08T18:00:04.464Z,101246.31
2023-08-08T18:02:35.973Z,101248.22
2023-08-08T18:05:02.558Z,101252.88
2023-08-08T18:07:29.166Z,101254.56
2023-08-08T18:09:55.894Z,101266.63
2023-08-08T18:12:22.415Z,101268.53
2023-08-08T18:14:53.798Z,101283.16
2023-08-08T18:17:22.739Z,101288.66
2023-08-08T18:19:52.996Z,101290.56
2023-08-08T18:22:19.531Z,101275.94
2023-08-08T18:24:47.153Z,101275.94
2023-08-08T18:27:14.061Z,101273.19
2023-08-08T18:29:40.588Z,101275.09
2023-08-08T18:32:08.114Z,101258.56
2023-08-08T18:34:35.149Z,101262.38
2023-08-08T18:37:01.646Z,101254.31
2023-08-08T18:39:28.178Z,101259.81
2023-08-08T18:41:54.731Z,101257.91
2023-08-08T18:44:21.295Z,101250.72
2023-08-08T18:46:47.794Z,101257.06
2023-08-08T18:49:14.308Z,101269.13
2023-08-08T18:51:40.924Z,101272.72
2023-08-08T18:54:09.557Z,101258.97
2023-08-08T18:56:36.930Z,101258.13
2023-08-08T18:59:03.555Z,101267.44
2023-08-08T19:01:30.125Z,101262.78
2023-08-08T19:03:58.378Z,101250.91
2023-08-08T19:06:25.259Z,101261.06
2023-08-08T19:08:51.765Z,101258.31
2023-08-08T19:11:18.688Z,101255.38
2023-08-08T19:13:45.229Z,101253.66
2023-08-08T19:16:11.841Z,101246.47
2023-08-08T19:18:38.427Z,101246.47
2023-08-08T19:21:05.011Z,101256.41
2023-08-08T19:23:31.589Z,101261.91
2023-08-08T19:26:01.492Z,101258.31
2023-08-08T19:28:28.314Z,101257.66
2023-08-08T19:30:54.976Z,101256.63
2023-08-08T19:33:21.564Z,101255.75
2023-08-08T19:35:48.089Z,101250.25
2023-08-08T19:38:14.597Z,101256.63
2023-08-08T19:40:41.203Z,101252.16
2023-08-08T19:43:07.706Z,101248.34
2023-08-08T19:45:34.270Z,101243.91
2023-08-08T19:48:00.839Z,101244.75
2023-08-08T19:50:27.425Z,101247.50
2023-08-08T19:52:54.505Z,101242.00
2023-08-08T19:55:21.076Z,101234.78
2023-08-08T19:57:47.517Z,101231.19
2023-08-08T20:00:15.607Z,101226.53
2023-08-08T20:02:43.770Z,101231.19
2023-08-08T20:05:11.758Z,101228.44
2023-08-08T20:07:38.206Z,101213.81
2023-08-08T20:10:05.882Z,101203.84
2023-08-08T20:12:32.395Z,101205.56
2023-08-08T20:14:58.871Z,101205.56
2023-08-08T20:17:25.455Z,101192.84
2023-08-08T20:19:52.324Z,101191.97
2023-08-08T20:22:18.882Z,101200.06
2023-08-08T20:24:45.420Z,101194.56
2023-08-08T20:27:11.940Z,101183.72
2023-08-08T20:29:38.419Z,101188.38
2023-08-08T20:32:05.027Z,101181.81
2023-08-08T20:34:31.854Z,101183.94
2023-08-08T20:36:59.358Z,101188.38
2023-08-08T20:39:26.195Z,101198.53
2023-08-08T20:41:54.853Z,101188.38
2023-08-08T20:44:21.361Z,101184.78
2023-08-08T20:46:47.899Z,101189.44
2023-08-08T20:49:14.544Z,101183.06
2023-08-08T20:51:41.037Z,101186.69
2023-08-08T20:54:07.556Z,101177.56
2023-08-08T20:56:34.130Z,101178.41
2023-08-08T20:59:00.637Z,101174.81
2023-08-08T21:01:27.181Z,101182.03
2023-08-08T21:03:53.661Z,101173.13
2023-08-08T21:06:20.163Z,101175.66
2023-08-08T21:08:46.664Z,101170.16
2023-08-08T21:11:13.164Z,101173.97
2023-08-08T21:13:39.763Z,101165.72
2023-08-08T21:16:06.742Z,101166.56
2023-08-08T21:18:33.260Z,101153.84
2023-08-08T21:20:59.746Z,101154.69
2023-08-08T21:23:26.337Z,101152.81
2023-08-08T21:25:52.815Z,101151.09
2023-08-08T21:28:19.321Z,101150.06
2023-08-08T21:30:45.863Z,101152.81
2023-08-08T21:33:12.364Z,101149.19
2023-08-08T21:35:38.829Z,101150.06
2023-08-08T21:38:07.683Z,101146.44
2023-08-08T21:40:34.157Z,101143.69
2023-08-08T21:43:00.657Z,101147.50
2023-08-08T21:45:27.115Z,101149.19
2023-08-08T21:47:53.633Z,101153.00
2023-08-08T21:50:20.201Z,101142.00
2023-08-08T21:52:46.727Z,101136.28
2023-08-08T21:55:13.287Z,101142.00
2023-08-08T21:57:39.815Z,101137.34
2023-08-08T22:00:07.159Z,101138.41
2023-08-08T22:02:41.846Z,101139.25
2023-08-08T22:05:08.868Z,101133.94
2023-08-08T22:07:35.374Z,101133.94
2023-08-08T22:10:02.692Z,101134.78
2023-08-08T22:12:29.170Z,101141.16
2023-08-08T22:14:56.238Z,101133.94
2023-08-08T22:17:22.700Z,101131.19
2023-08-08T22:19:49.265Z,101133.94
2023-08-08T22:22:15.766Z,101140.31
2023-08-08T22:24:42.299Z,101132.88
2023-08-08T22:27:08.828Z,101133.94
2023-08-08T22:29:35.320Z,101134.78
2023-08-08T22:32:01.793Z,101135.63
2023-08-08T22:34:29.314Z,101137.53
2023-08-08T22:36:55.808Z,101133.94
2023-08-08T22:39:22.398Z,101148.56
2023-08-08T22:41:48.859Z,101151.31
2023-08-08T22:44:15.336Z,101146.66
2023-08-08T22:46:41.840Z,101144.94
2023-08-08T22:49:08.362Z,101154.06
2023-08-08T22:51:36.210Z,101146.84
2023-08-08T22:54:02.699Z,101145.81
2023-08-08T22:56:29.138Z,101145.81
2023-08-08T22:58:55.622Z,101152.34
2023-08-08T23:01:22.131Z,101166.13
2023-08-08T23:03:48.697Z,101158.72
2023-08-08T23:06:15.322Z,101160.63
2023-08-08T23:08:41.800Z,101155.97
2023-08-08T23:11:08.278Z,101163.38
2023-08-08T23:13:34.809Z,101158.91
2023-08-08T23:16:01.362Z,101155.09
2023-08-08T23:18:27.900Z,101158.06
2023-08-08T23:20:54.802Z,101164.41
2023-08-08T23:23:21.292Z,101157.22
2023-08-08T23:25:47.830Z,101145.16
2023-08-08T23:28:17.921Z,101145.16
2023-08-08T23:30:45.313Z,101147.06
2023-08-08T23:33:11.898Z,101147.91
2023-08-08T23:35:38.584Z,101158.06
2023-08-08T23:38:05.050Z,101155.31
2023-08-08T23:40:31.649Z,101148.97
2023-08-08T23:42:58.168Z,101147.06
2023-08-08T23:45:25.563Z,101137.94
2023-08-08T23:47:52.090Z,101146.22
2023-08-08T23:50:18.737Z,101146.22
2023-08-08T23:52:45.251Z,101144.50
2023-08-08T23:55:12.401Z,101156.38
2023-08-08T23:57:39.034Z,101150.88
